sensor_id;sensor_type;location;lat;lon;timestamp;P1;durP1;ratioP1;P2;durP2;ratioP2
6689;SDS011;3382;51.576;8.076;2023-04-07T00:00:25;5.83;;;5.20;;
6689;SDS011;3382;51.576;8.076;2023-04-07T00:02:51;6.60;;;5.80;;
6689;SDS011;3382;51.576;8.076;2023-04-07T00:05:17;5.33;;;4.83;;
6689;SDS011;3382;51.576;8.076;2023-04-07T00:07:43;4.53;;;4.13;;
6689;SDS011;3382;51.576;8.076;2023-04-07T00:10:08;6.07;;;5.13;;
6689;SDS011;3382;51.576;8.076;2023-04-07T00:12:34;5.77;;;4.97;;
6689;SDS011;3382;51.576;8.076;2023-04-07T00:15:00;5.30;;;4.80;;
6689;SDS011;3382;51.576;8.076;2023-04-07T00:17:26;5.23;;;4.63;;
6689;SDS011;3382;51.576;8.076;2023-04-07T00:19:51;5.53;;;4.83;;
6689;SDS011;3382;51.576;8.076;2023-04-07T00:22:17;5.20;;;4.70;;
6689;SDS011;3382;51.576;8.076;2023-04-07T00:24:43;4.53;;;4.10;;
6689;SDS011;3382;51.576;8.076;2023-04-07T00:27:08;4.67;;;4.27;;
6689;SDS011;3382;51.576;8.076;2023-04-07T00:29:35;6.47;;;4.40;;
6689;SDS011;3382;51.576;8.076;2023-04-07T00:32:00;4.67;;;4.17;;
6689;SDS011;3382;51.576;8.076;2023-04-07T00:34:26;5.00;;;4.50;;
6689;SDS011;3382;51.576;8.076;2023-04-07T00:36:51;4.50;;;4.03;;
6689;SDS011;3382;51.576;8.076;2023-04-07T00:39:18;4.47;;;4.07;;
6689;SDS011;3382;51.576;8.076;2023-04-07T00:41:44;4.70;;;3.90;;
6689;SDS011;3382;51.576;8.076;2023-04-07T00:44:10;4.70;;;4.30;;
6689;SDS011;3382;51.576;8.076;2023-04-07T00:46:36;4.60;;;4.20;;
6689;SDS011;3382;51.576;8.076;2023-04-07T00:49:02;4.40;;;4.00;;
6689;SDS011;3382;51.576;8.076;2023-04-07T00:51:28;4.53;;;4.13;;
6689;SDS011;3382;51.576;8.076;2023-04-07T00:53:53;4.10;;;3.80;;
6689;SDS011;3382;51.576;8.076;2023-04-07T00:56:19;5.97;;;3.63;;
6689;SDS011;3382;51.576;8.076;2023-04-07T00:58:44;4.03;;;3.63;;
6689;SDS011;3382;51.576;8.076;2023-04-07T01:04:03;4.13;;;3.73;;
6689;SDS011;3382;51.576;8.076;2023-04-07T01:06:32;3.57;;;3.27;;
6689;SDS011;3382;51.576;8.076;2023-04-07T01:11:45;3.97;;;3.57;;
6689;SDS011;3382;51.576;8.076;2023-04-07T01:14:17;4.00;;;3.60;;
6689;SDS011;3382;51.576;8.076;2023-04-07T01:16:50;3.70;;;3.30;;
6689;SDS011;3382;51.576;8.076;2023-04-07T01:22:06;3.60;;;3.30;;
6689;SDS011;3382;51.576;8.076;2023-04-07T01:27:42;3.40;;;3.10;;
6689;SDS011;3382;51.576;8.076;2023-04-07T01:30:17;3.57;;;3.20;;
6689;SDS011;3382;51.576;8.076;2023-04-07T01:32:46;3.80;;;3.50;;
6689;SDS011;3382;51.576;8.076;2023-04-07T01:35:15;5.00;;;3.70;;
6689;SDS011;3382;51.576;8.076;2023-04-07T01:37:43;6.13;;;3.40;;
6689;SDS011;3382;51.576;8.076;2023-04-07T01:40:10;3.43;;;3.13;;
6689;SDS011;3382;51.576;8.076;2023-04-07T01:42:37;3.40;;;3.10;;
6689;SDS011;3382;51.576;8.076;2023-04-07T01:45:04;3.63;;;3.33;;
6689;SDS011;3382;51.576;8.076;2023-04-07T01:47:33;3.30;;;3.00;;
6689;SDS011;3382;51.576;8.076;2023-04-07T01:50:01;2.93;;;2.73;;
6689;SDS011;3382;51.576;8.076;2023-04-07T01:52:31;3.20;;;2.90;;
6689;SDS011;3382;51.576;8.076;2023-04-07T01:54:58;3.53;;;3.00;;
6689;SDS011;3382;51.576;8.076;2023-04-07T01:57:24;2.90;;;2.60;;
6689;SDS011;3382;51.576;8.076;2023-04-07T01:59:50;3.23;;;2.93;;
6689;SDS011;3382;51.576;8.076;2023-04-07T02:02:17;3.10;;;2.70;;
6689;SDS011;3382;51.576;8.076;2023-04-07T02:07:24;3.47;;;3.17;;
6689;SDS011;3382;51.576;8.076;2023-04-07T02:09:55;2.93;;;2.73;;
6689;SDS011;3382;51.576;8.076;2023-04-07T02:12:25;3.63;;;3.33;;
6689;SDS011;3382;51.576;8.076;2023-04-07T02:14:53;3.23;;;2.93;;
6689;SDS011;3382;51.576;8.076;2023-04-07T02:17:20;4.20;;;2.70;;
6689;SDS011;3382;51.576;8.076;2023-04-07T02:19:48;2.60;;;2.40;;
6689;SDS011;3382;51.576;8.076;2023-04-07T02:22:15;2.70;;;2.50;;
6689;SDS011;3382;51.576;8.076;2023-04-07T02:24:41;3.07;;;2.77;;
6689;SDS011;3382;51.576;8.076;2023-04-07T02:27:07;2.40;;;2.20;;
6689;SDS011;3382;51.576;8.076;2023-04-07T02:29:32;2.90;;;2.60;;
6689;SDS011;3382;51.576;8.076;2023-04-07T02:31:58;3.10;;;2.77;;
6689;SDS011;3382;51.576;8.076;2023-04-07T02:34:23;2.67;;;2.47;;
6689;SDS011;3382;51.576;8.076;2023-04-07T02:36:49;3.00;;;2.70;;
6689;SDS011;3382;51.576;8.076;2023-04-07T02:39:15;2.50;;;2.30;;
6689;SDS011;3382;51.576;8.076;2023-04-07T02:41:41;3.10;;;2.80;;
6689;SDS011;3382;51.576;8.076;2023-04-07T02:44:06;2.93;;;2.63;;
6689;SDS011;3382;51.576;8.076;2023-04-07T02:46:32;2.43;;;2.23;;
6689;SDS011;3382;51.576;8.076;2023-04-07T02:48:58;2.90;;;2.70;;
6689;SDS011;3382;51.576;8.076;2023-04-07T02:51:23;2.60;;;2.40;;
6689;SDS011;3382;51.576;8.076;2023-04-07T02:53:49;2.47;;;2.20;;
6689;SDS011;3382;51.576;8.076;2023-04-07T02:56:15;2.77;;;2.47;;
6689;SDS011;3382;51.576;8.076;2023-04-07T02:58:41;2.90;;;2.63;;
6689;SDS011;3382;51.576;8.076;2023-04-07T03:01:06;2.60;;;2.40;;
6689;SDS011;3382;51.576;8.076;2023-04-07T03:03:32;2.97;;;2.77;;
6689;SDS011;3382;51.576;8.076;2023-04-07T03:06:00;2.73;;;2.53;;
6689;SDS011;3382;51.576;8.076;2023-04-07T03:08:26;3.00;;;2.80;;
6689;SDS011;3382;51.576;8.076;2023-04-07T03:10:51;3.43;;;2.73;;
6689;SDS011;3382;51.576;8.076;2023-04-07T03:13:17;3.27;;;2.63;;
6689;SDS011;3382;51.576;8.076;2023-04-07T03:15:45;2.77;;;2.50;;
6689;SDS011;3382;51.576;8.076;2023-04-07T03:18:11;3.57;;;2.60;;
6689;SDS011;3382;51.576;8.076;2023-04-07T03:20:37;3.17;;;2.87;;
6689;SDS011;3382;51.576;8.076;2023-04-07T03:23:02;3.03;;;2.53;;
6689;SDS011;3382;51.576;8.076;2023-04-07T03:25:28;3.13;;;2.83;;
6689;SDS011;3382;51.576;8.076;2023-04-07T03:27:54;2.60;;;2.40;;
6689;SDS011;3382;51.576;8.076;2023-04-07T03:30:19;2.67;;;2.47;;
6689;SDS011;3382;51.576;8.076;2023-04-07T03:32:45;3.23;;;2.80;;
6689;SDS011;3382;51.576;8.076;2023-04-07T03:35:11;2.50;;;2.30;;
6689;SDS011;3382;51.576;8.076;2023-04-07T03:37:36;3.00;;;2.67;;
6689;SDS011;3382;51.576;8.076;2023-04-07T03:40:02;2.97;;;2.67;;
6689;SDS011;3382;51.576;8.076;2023-04-07T03:42:28;2.80;;;2.50;;
6689;SDS011;3382;51.576;8.076;2023-04-07T03:44:53;3.07;;;2.10;;
6689;SDS011;3382;51.576;8.076;2023-04-07T03:47:19;2.27;;;2.17;;
6689;SDS011;3382;51.576;8.076;2023-04-07T03:49:46;2.30;;;2.10;;
6689;SDS011;3382;51.576;8.076;2023-04-07T03:52:12;2.30;;;2.10;;
6689;SDS011;3382;51.576;8.076;2023-04-07T03:54:37;2.40;;;2.20;;
6689;SDS011;3382;51.576;8.076;2023-04-07T03:57:04;2.57;;;2.37;;
6689;SDS011;3382;51.576;8.076;2023-04-07T03:59:30;2.23;;;2.03;;
6689;SDS011;3382;51.576;8.076;2023-04-07T04:01:55;2.40;;;2.00;;
6689;SDS011;3382;51.576;8.076;2023-04-07T04:04:21;2.20;;;2.00;;
6689;SDS011;3382;51.576;8.076;2023-04-07T04:06:48;2.40;;;2.20;;
6689;SDS011;3382;51.576;8.076;2023-04-07T04:09:14;2.10;;;1.93;;
6689;SDS011;3382;51.576;8.076;2023-04-07T04:11:40;2.20;;;1.87;;
6689;SDS011;3382;51.576;8.076;2023-04-07T04:14:06;2.20;;;2.03;;
6689;SDS011;3382;51.576;8.076;2023-04-07T04:16:31;1.87;;;1.77;;
6689;SDS011;3382;51.576;8.076;2023-04-07T04:18:59;2.17;;;1.97;;
6689;SDS011;3382;51.576;8.076;2023-04-07T04:21:25;1.73;;;1.63;;
6689;SDS011;3382;51.576;8.076;2023-04-07T04:23:51;1.70;;;1.60;;
6689;SDS011;3382;51.576;8.076;2023-04-07T04:26:17;2.67;;;2.00;;
6689;SDS011;3382;51.576;8.076;2023-04-07T04:28:43;2.53;;;1.83;;
6689;SDS011;3382;51.576;8.076;2023-04-07T04:31:08;2.10;;;1.90;;
6689;SDS011;3382;51.576;8.076;2023-04-07T04:33:34;1.73;;;1.60;;
6689;SDS011;3382;51.576;8.076;2023-04-07T04:36:00;3.63;;;1.60;;
6689;SDS011;3382;51.576;8.076;2023-04-07T04:38:25;1.87;;;1.77;;
6689;SDS011;3382;51.576;8.076;2023-04-07T04:40:51;2.50;;;2.30;;
6689;SDS011;3382;51.576;8.076;2023-04-07T04:43:17;4.47;;;2.90;;
6689;SDS011;3382;51.576;8.076;2023-04-07T04:45:42;2.60;;;2.37;;
6689;SDS011;3382;51.576;8.076;2023-04-07T04:48:08;3.13;;;2.37;;
6689;SDS011;3382;51.576;8.076;2023-04-07T04:50:35;3.50;;;3.00;;
6689;SDS011;3382;51.576;8.076;2023-04-07T04:53:00;2.80;;;2.50;;
6689;SDS011;3382;51.576;8.076;2023-04-07T04:55:26;2.47;;;2.27;;
6689;SDS011;3382;51.576;8.076;2023-04-07T04:57:52;4.03;;;2.70;;
6689;SDS011;3382;51.576;8.076;2023-04-07T05:00:18;2.40;;;2.20;;
6689;SDS011;3382;51.576;8.076;2023-04-07T05:02:44;2.47;;;2.10;;
6689;SDS011;3382;51.576;8.076;2023-04-07T05:05:10;2.50;;;2.20;;
6689;SDS011;3382;51.576;8.076;2023-04-07T05:07:36;4.90;;;2.53;;
6689;SDS011;3382;51.576;8.076;2023-04-07T05:10:04;2.27;;;2.00;;
6689;SDS011;3382;51.576;8.076;2023-04-07T05:12:31;2.13;;;2.03;;
6689;SDS011;3382;51.576;8.076;2023-04-07T05:14:57;3.40;;;2.37;;
6689;SDS011;3382;51.576;8.076;2023-04-07T05:17:22;3.57;;;2.30;;
6689;SDS011;3382;51.576;8.076;2023-04-07T05:19:51;1.87;;;1.73;;
6689;SDS011;3382;51.576;8.076;2023-04-07T05:22:16;2.00;;;1.80;;
6689;SDS011;3382;51.576;8.076;2023-04-07T05:24:42;2.90;;;2.10;;
6689;SDS011;3382;51.576;8.076;2023-04-07T05:27:07;2.10;;;2.00;;
6689;SDS011;3382;51.576;8.076;2023-04-07T05:29:33;2.37;;;2.17;;
6689;SDS011;3382;51.576;8.076;2023-04-07T05:31:58;2.60;;;1.97;;
6689;SDS011;3382;51.576;8.076;2023-04-07T05:34:25;3.10;;;2.10;;
6689;SDS011;3382;51.576;8.076;2023-04-07T05:36:51;2.67;;;2.17;;
6689;SDS011;3382;51.576;8.076;2023-04-07T05:39:17;4.27;;;2.17;;
6689;SDS011;3382;51.576;8.076;2023-04-07T05:41:42;2.00;;;1.87;;
6689;SDS011;3382;51.576;8.076;2023-04-07T05:44:09;2.77;;;2.23;;
6689;SDS011;3382;51.576;8.076;2023-04-07T05:46:34;2.33;;;2.13;;
6689;SDS011;3382;51.576;8.076;2023-04-07T05:49:00;2.40;;;2.20;;
6689;SDS011;3382;51.576;8.076;2023-04-07T05:51:26;4.73;;;3.33;;
6689;SDS011;3382;51.576;8.076;2023-04-07T05:53:51;1.63;;;1.53;;
6689;SDS011;3382;51.576;8.076;2023-04-07T05:56:17;2.00;;;1.80;;
6689;SDS011;3382;51.576;8.076;2023-04-07T05:58:43;1.30;;;1.20;;
6689;SDS011;3382;51.576;8.076;2023-04-07T06:01:08;1.90;;;1.70;;
6689;SDS011;3382;51.576;8.076;2023-04-07T06:03:34;1.40;;;1.30;;
6689;SDS011;3382;51.576;8.076;2023-04-07T06:05:59;1.50;;;1.40;;
6689;SDS011;3382;51.576;8.076;2023-04-07T06:08:25;1.60;;;1.50;;
6689;SDS011;3382;51.576;8.076;2023-04-07T06:10:51;1.50;;;1.40;;
6689;SDS011;3382;51.576;8.076;2023-04-07T06:13:16;1.40;;;1.30;;
6689;SDS011;3382;51.576;8.076;2023-04-07T06:15:42;1.00;;;1.00;;
6689;SDS011;3382;51.576;8.076;2023-04-07T06:18:07;1.13;;;1.10;;
6689;SDS011;3382;51.576;8.076;2023-04-07T06:20:33;3.53;;;1.20;;
6689;SDS011;3382;51.576;8.076;2023-04-07T06:22:59;1.60;;;1.50;;
6689;SDS011;3382;51.576;8.076;2023-04-07T06:25:25;1.03;;;1.03;;
6689;SDS011;3382;51.576;8.076;2023-04-07T06:27:52;1.40;;;1.30;;
6689;SDS011;3382;51.576;8.076;2023-04-07T06:30:18;1.20;;;1.10;;
6689;SDS011;3382;51.576;8.076;2023-04-07T06:32:43;1.13;;;1.13;;
6689;SDS011;3382;51.576;8.076;2023-04-07T06:35:09;1.80;;;1.20;;
6689;SDS011;3382;51.576;8.076;2023-04-07T06:37:35;1.20;;;1.10;;
6689;SDS011;3382;51.576;8.076;2023-04-07T06:40:00;1.30;;;1.20;;
6689;SDS011;3382;51.576;8.076;2023-04-07T06:42:26;1.10;;;1.10;;
6689;SDS011;3382;51.576;8.076;2023-04-07T06:44:52;1.30;;;1.17;;
6689;SDS011;3382;51.576;8.076;2023-04-07T06:47:17;1.10;;;1.10;;
6689;SDS011;3382;51.576;8.076;2023-04-07T06:49:43;1.10;;;1.10;;
6689;SDS011;3382;51.576;8.076;2023-04-07T06:52:08;4.87;;;1.30;;
6689;SDS011;3382;51.576;8.076;2023-04-07T06:54:34;1.40;;;1.30;;
6689;SDS011;3382;51.576;8.076;2023-04-07T06:57:00;2.27;;;1.20;;
6689;SDS011;3382;51.576;8.076;2023-04-07T06:59:26;1.30;;;1.17;;
6689;SDS011;3382;51.576;8.076;2023-04-07T07:01:51;1.10;;;1.00;;
6689;SDS011;3382;51.576;8.076;2023-04-07T07:04:17;0.90;;;0.90;;
6689;SDS011;3382;51.576;8.076;2023-04-07T07:06:42;1.03;;;0.90;;
6689;SDS011;3382;51.576;8.076;2023-04-07T07:09:08;1.10;;;1.00;;
6689;SDS011;3382;51.576;8.076;2023-04-07T07:11:33;0.90;;;0.90;;
6689;SDS011;3382;51.576;8.076;2023-04-07T07:13:59;1.40;;;1.00;;
6689;SDS011;3382;51.576;8.076;2023-04-07T07:16:25;0.90;;;0.90;;
6689;SDS011;3382;51.576;8.076;2023-04-07T07:18:50;1.07;;;1.00;;
6689;SDS011;3382;51.576;8.076;2023-04-07T07:21:16;1.10;;;1.00;;
6689;SDS011;3382;51.576;8.076;2023-04-07T07:23:43;1.00;;;1.00;;
6689;SDS011;3382;51.576;8.076;2023-04-07T07:26:09;1.13;;;1.03;;
6689;SDS011;3382;51.576;8.076;2023-04-07T07:28:34;1.10;;;1.10;;
6689;SDS011;3382;51.576;8.076;2023-04-07T07:31:06;1.17;;;1.07;;
6689;SDS011;3382;51.576;8.076;2023-04-07T07:33:34;1.20;;;1.10;;
6689;SDS011;3382;51.576;8.076;2023-04-07T07:35:59;1.10;;;0.90;;
6689;SDS011;3382;51.576;8.076;2023-04-07T07:38:25;1.20;;;1.10;;
6689;SDS011;3382;51.576;8.076;2023-04-07T07:40:51;1.03;;;1.03;;
6689;SDS011;3382;51.576;8.076;2023-04-07T07:43:17;1.10;;;1.10;;
6689;SDS011;3382;51.576;8.076;2023-04-07T07:45:43;1.30;;;1.20;;
6689;SDS011;3382;51.576;8.076;2023-04-07T07:48:08;1.40;;;1.30;;
6689;SDS011;3382;51.576;8.076;2023-04-07T07:50:34;1.30;;;1.20;;
6689;SDS011;3382;51.576;8.076;2023-04-07T07:53:00;2.17;;;1.70;;
6689;SDS011;3382;51.576;8.076;2023-04-07T07:55:26;4.47;;;2.07;;
6689;SDS011;3382;51.576;8.076;2023-04-07T07:57:51;1.57;;;1.47;;
6689;SDS011;3382;51.576;8.076;2023-04-07T08:00:17;2.83;;;2.03;;
6689;SDS011;3382;51.576;8.076;2023-04-07T08:02:42;1.47;;;1.37;;
6689;SDS011;3382;51.576;8.076;2023-04-07T08:05:08;0.93;;;0.93;;
6689;SDS011;3382;51.576;8.076;2023-04-07T08:07:34;0.87;;;0.87;;
6689;SDS011;3382;51.576;8.076;2023-04-07T08:10:00;2.27;;;1.30;;
6689;SDS011;3382;51.576;8.076;2023-04-07T08:12:26;1.13;;;1.13;;
6689;SDS011;3382;51.576;8.076;2023-04-07T08:14:51;1.40;;;1.30;;
6689;SDS011;3382;51.576;8.076;2023-04-07T08:17:17;1.13;;;1.10;;
6689;SDS011;3382;51.576;8.076;2023-04-07T08:19:43;1.20;;;1.10;;
6689;SDS011;3382;51.576;8.076;2023-04-07T08:22:08;1.20;;;1.10;;
6689;SDS011;3382;51.576;8.076;2023-04-07T08:24:34;2.30;;;1.20;;
6689;SDS011;3382;51.576;8.076;2023-04-07T08:26:59;1.00;;;1.00;;
6689;SDS011;3382;51.576;8.076;2023-04-07T08:29:25;1.00;;;1.00;;
6689;SDS011;3382;51.576;8.076;2023-04-07T08:31:51;1.10;;;0.90;;
6689;SDS011;3382;51.576;8.076;2023-04-07T08:34:16;1.37;;;1.27;;
6689;SDS011;3382;51.576;8.076;2023-04-07T08:36:44;1.40;;;1.30;;
6689;SDS011;3382;51.576;8.076;2023-04-07T08:39:10;1.10;;;1.10;;
6689;SDS011;3382;51.576;8.076;2023-04-07T08:41:36;1.10;;;0.93;;
6689;SDS011;3382;51.576;8.076;2023-04-07T08:44:03;1.00;;;1.00;;
6689;SDS011;3382;51.576;8.076;2023-04-07T08:46:30;1.20;;;1.20;;
6689;SDS011;3382;51.576;8.076;2023-04-07T08:48:58;1.10;;;1.10;;
6689;SDS011;3382;51.576;8.076;2023-04-07T08:51:30;2.57;;;1.27;;
6689;SDS011;3382;51.576;8.076;2023-04-07T08:54:07;1.30;;;1.20;;
6689;SDS011;3382;51.576;8.076;2023-04-07T08:56:35;1.43;;;1.20;;
6689;SDS011;3382;51.576;8.076;2023-04-07T08:59:04;1.30;;;1.20;;
6689;SDS011;3382;51.576;8.076;2023-04-07T09:01:32;1.47;;;1.37;;
6689;SDS011;3382;51.576;8.076;2023-04-07T09:03:59;1.07;;;1.07;;
6689;SDS011;3382;51.576;8.076;2023-04-07T09:06:30;1.47;;;1.30;;
6689;SDS011;3382;51.576;8.076;2023-04-07T09:08:57;2.00;;;1.27;;
6689;SDS011;3382;51.576;8.076;2023-04-07T09:11:25;1.50;;;1.30;;
6689;SDS011;3382;51.576;8.076;2023-04-07T09:13:51;1.00;;;1.00;;
6689;SDS011;3382;51.576;8.076;2023-04-07T09:16:17;1.10;;;1.10;;
6689;SDS011;3382;51.576;8.076;2023-04-07T09:18:43;1.87;;;1.13;;
6689;SDS011;3382;51.576;8.076;2023-04-07T09:21:08;0.93;;;0.93;;
6689;SDS011;3382;51.576;8.076;2023-04-07T09:23:38;1.30;;;1.20;;
6689;SDS011;3382;51.576;8.076;2023-04-07T09:31:20;1.17;;;1.10;;
6689;SDS011;3382;51.576;8.076;2023-04-07T09:33:49;1.27;;;1.17;;
6689;SDS011;3382;51.576;8.076;2023-04-07T09:36:15;1.20;;;1.10;;
6689;SDS011;3382;51.576;8.076;2023-04-07T09:38:41;1.30;;;1.20;;
6689;SDS011;3382;51.576;8.076;2023-04-07T09:41:12;1.00;;;1.00;;
6689;SDS011;3382;51.576;8.076;2023-04-07T09:43:40;1.10;;;1.10;;
6689;SDS011;3382;51.576;8.076;2023-04-07T09:46:15;1.33;;;1.27;;
6689;SDS011;3382;51.576;8.076;2023-04-07T09:48:43;1.20;;;1.10;;
6689;SDS011;3382;51.576;8.076;2023-04-07T09:51:10;1.30;;;1.20;;
6689;SDS011;3382;51.576;8.076;2023-04-07T09:53:47;1.00;;;1.00;;
6689;SDS011;3382;51.576;8.076;2023-04-07T09:56:15;1.73;;;1.17;;
6689;SDS011;3382;51.576;8.076;2023-04-07T09:58:43;0.90;;;0.90;;
6689;SDS011;3382;51.576;8.076;2023-04-07T10:01:11;0.90;;;0.90;;
6689;SDS011;3382;51.576;8.076;2023-04-07T10:03:38;1.30;;;1.07;;
6689;SDS011;3382;51.576;8.076;2023-04-07T10:06:04;1.20;;;1.10;;
6689;SDS011;3382;51.576;8.076;2023-04-07T10:08:31;2.80;;;1.10;;
6689;SDS011;3382;51.576;8.076;2023-04-07T10:10:59;1.33;;;1.23;;
6689;SDS011;3382;51.576;8.076;2023-04-07T10:13:27;1.00;;;1.00;;
6689;SDS011;3382;51.576;8.076;2023-04-07T10:15:54;1.87;;;1.77;;
6689;SDS011;3382;51.576;8.076;2023-04-07T10:18:20;1.30;;;1.20;;
6689;SDS011;3382;51.576;8.076;2023-04-07T10:20:50;2.07;;;1.87;;
6689;SDS011;3382;51.576;8.076;2023-04-07T10:23:19;1.47;;;1.20;;
6689;SDS011;3382;51.576;8.076;2023-04-07T10:26:04;0.80;;;0.80;;
6689;SDS011;3382;51.576;8.076;2023-04-07T10:28:31;0.97;;;0.97;;
6689;SDS011;3382;51.576;8.076;2023-04-07T10:31:01;1.00;;;1.00;;
6689;SDS011;3382;51.576;8.076;2023-04-07T10:33:44;1.40;;;1.10;;
6689;SDS011;3382;51.576;8.076;2023-04-07T10:36:10;1.00;;;1.00;;
6689;SDS011;3382;51.576;8.076;2023-04-07T10:38:36;1.10;;;1.10;;
6689;SDS011;3382;51.576;8.076;2023-04-07T10:44:00;1.03;;;1.00;;
6689;SDS011;3382;51.576;8.076;2023-04-07T10:49:14;1.50;;;1.40;;
6689;SDS011;3382;51.576;8.076;2023-04-07T10:51:40;1.00;;;1.00;;
6689;SDS011;3382;51.576;8.076;2023-04-07T10:54:19;1.20;;;1.10;;
6689;SDS011;3382;51.576;8.076;2023-04-07T10:59:31;1.40;;;1.30;;
6689;SDS011;3382;51.576;8.076;2023-04-07T11:04:38;1.10;;;1.10;;
6689;SDS011;3382;51.576;8.076;2023-04-07T11:07:05;1.40;;;1.30;;
6689;SDS011;3382;51.576;8.076;2023-04-07T11:09:31;2.07;;;1.80;;
6689;SDS011;3382;51.576;8.076;2023-04-07T11:11:57;3.70;;;2.00;;
6689;SDS011;3382;51.576;8.076;2023-04-07T11:14:26;2.20;;;1.30;;
6689;SDS011;3382;51.576;8.076;2023-04-07T11:16:56;2.77;;;2.00;;
6689;SDS011;3382;51.576;8.076;2023-04-07T11:19:22;2.23;;;1.50;;
6689;SDS011;3382;51.576;8.076;2023-04-07T11:21:48;1.17;;;1.10;;
6689;SDS011;3382;51.576;8.076;2023-04-07T11:26:59;1.30;;;1.20;;
6689;SDS011;3382;51.576;8.076;2023-04-07T11:29:28;1.30;;;1.20;;
6689;SDS011;3382;51.576;8.076;2023-04-07T11:31:56;1.40;;;1.30;;
6689;SDS011;3382;51.576;8.076;2023-04-07T11:34:28;2.17;;;1.50;;
6689;SDS011;3382;51.576;8.076;2023-04-07T11:36:55;1.50;;;1.40;;
6689;SDS011;3382;51.576;8.076;2023-04-07T11:39:24;1.53;;;1.37;;
6689;SDS011;3382;51.576;8.076;2023-04-07T11:41:55;1.47;;;1.37;;
6689;SDS011;3382;51.576;8.076;2023-04-07T11:44:21;1.50;;;1.40;;
6689;SDS011;3382;51.576;8.076;2023-04-07T11:46:56;1.83;;;1.57;;
6689;SDS011;3382;51.576;8.076;2023-04-07T11:49:24;3.03;;;1.43;;
6689;SDS011;3382;51.576;8.076;2023-04-07T11:54:38;2.03;;;1.70;;
6689;SDS011;3382;51.576;8.076;2023-04-07T11:57:07;1.90;;;1.70;;
6689;SDS011;3382;51.576;8.076;2023-04-07T11:59:36;1.50;;;1.40;;
6689;SDS011;3382;51.576;8.076;2023-04-07T12:02:02;2.00;;;1.70;;
6689;SDS011;3382;51.576;8.076;2023-04-07T12:04:28;1.57;;;1.47;;
6689;SDS011;3382;51.576;8.076;2023-04-07T12:06:54;1.57;;;1.47;;
6689;SDS011;3382;51.576;8.076;2023-04-07T12:09:35;15.57;;;10.60;;
6689;SDS011;3382;51.576;8.076;2023-04-07T12:12:02;2.40;;;2.20;;
6689;SDS011;3382;51.576;8.076;2023-04-07T12:14:30;2.27;;;2.07;;
6689;SDS011;3382;51.576;8.076;2023-04-07T12:16:56;1.83;;;1.47;;
6689;SDS011;3382;51.576;8.076;2023-04-07T12:19:26;1.70;;;1.60;;
6689;SDS011;3382;51.576;8.076;2023-04-07T12:21:53;1.67;;;1.57;;
6689;SDS011;3382;51.576;8.076;2023-04-07T12:24:19;1.50;;;1.40;;
6689;SDS011;3382;51.576;8.076;2023-04-07T12:26:45;1.63;;;1.40;;
6689;SDS011;3382;51.576;8.076;2023-04-07T12:29:12;2.33;;;1.40;;
6689;SDS011;3382;51.576;8.076;2023-04-07T12:31:37;1.40;;;1.30;;
6689;SDS011;3382;51.576;8.076;2023-04-07T12:34:03;1.33;;;1.23;;
6689;SDS011;3382;51.576;8.076;2023-04-07T12:36:29;1.57;;;1.30;;
6689;SDS011;3382;51.576;8.076;2023-04-07T12:38:55;1.60;;;1.50;;
6689;SDS011;3382;51.576;8.076;2023-04-07T12:41:20;1.43;;;1.33;;
6689;SDS011;3382;51.576;8.076;2023-04-07T12:43:46;1.50;;;1.40;;
6689;SDS011;3382;51.576;8.076;2023-04-07T12:46:12;2.53;;;1.50;;
6689;SDS011;3382;51.576;8.076;2023-04-07T12:48:38;1.57;;;1.47;;
6689;SDS011;3382;51.576;8.076;2023-04-07T12:51:03;3.17;;;1.67;;
6689;SDS011;3382;51.576;8.076;2023-04-07T12:53:29;1.60;;;1.50;;
6689;SDS011;3382;51.576;8.076;2023-04-07T12:55:55;1.57;;;1.47;;
6689;SDS011;3382;51.576;8.076;2023-04-07T12:58:21;1.40;;;1.30;;
6689;SDS011;3382;51.576;8.076;2023-04-07T13:00:49;2.10;;;1.70;;
6689;SDS011;3382;51.576;8.076;2023-04-07T13:03:15;1.50;;;1.40;;
6689;SDS011;3382;51.576;8.076;2023-04-07T13:05:40;1.53;;;1.43;;
6689;SDS011;3382;51.576;8.076;2023-04-07T13:08:06;1.97;;;1.80;;
6689;SDS011;3382;51.576;8.076;2023-04-07T13:10:32;1.37;;;1.30;;
6689;SDS011;3382;51.576;8.076;2023-04-07T13:12:58;1.83;;;1.73;;
6689;SDS011;3382;51.576;8.076;2023-04-07T13:15:23;1.57;;;1.30;;
6689;SDS011;3382;51.576;8.076;2023-04-07T13:17:49;1.97;;;1.73;;
6689;SDS011;3382;51.576;8.076;2023-04-07T13:20:15;2.10;;;1.90;;
6689;SDS011;3382;51.576;8.076;2023-04-07T13:22:40;2.70;;;2.03;;
6689;SDS011;3382;51.576;8.076;2023-04-07T13:25:06;2.97;;;2.30;;
6689;SDS011;3382;51.576;8.076;2023-04-07T13:27:32;1.77;;;1.67;;
6689;SDS011;3382;51.576;8.076;2023-04-07T13:29:58;2.73;;;2.00;;
6689;SDS011;3382;51.576;8.076;2023-04-07T13:32:23;3.73;;;2.73;;
6689;SDS011;3382;51.576;8.076;2023-04-07T13:34:49;1.70;;;1.60;;
6689;SDS011;3382;51.576;8.076;2023-04-07T13:37:15;2.20;;;2.00;;
6689;SDS011;3382;51.576;8.076;2023-04-07T13:39:41;1.60;;;1.50;;
6689;SDS011;3382;51.576;8.076;2023-04-07T13:42:06;1.80;;;1.70;;
6689;SDS011;3382;51.576;8.076;2023-04-07T13:44:34;1.70;;;1.60;;
6689;SDS011;3382;51.576;8.076;2023-04-07T13:47:01;1.80;;;1.70;;
6689;SDS011;3382;51.576;8.076;2023-04-07T13:49:27;2.00;;;1.90;;
6689;SDS011;3382;51.576;8.076;2023-04-07T13:51:53;2.23;;;1.80;;
6689;SDS011;3382;51.576;8.076;2023-04-07T13:54:19;2.60;;;2.40;;
6689;SDS011;3382;51.576;8.076;2023-04-07T13:56:45;2.20;;;2.00;;
6689;SDS011;3382;51.576;8.076;2023-04-07T13:59:13;2.00;;;1.80;;
6689;SDS011;3382;51.576;8.076;2023-04-07T14:01:39;1.73;;;1.63;;
6689;SDS011;3382;51.576;8.076;2023-04-07T14:04:05;2.23;;;2.03;;
6689;SDS011;3382;51.576;8.076;2023-04-07T14:06:30;3.67;;;1.53;;
6689;SDS011;3382;51.576;8.076;2023-04-07T14:08:56;1.93;;;1.67;;
6689;SDS011;3382;51.576;8.076;2023-04-07T14:11:22;1.50;;;1.40;;
6689;SDS011;3382;51.576;8.076;2023-04-07T14:13:48;2.23;;;1.90;;
6689;SDS011;3382;51.576;8.076;2023-04-07T14:16:15;2.90;;;2.27;;
6689;SDS011;3382;51.576;8.076;2023-04-07T14:18:42;2.33;;;1.97;;
6689;SDS011;3382;51.576;8.076;2023-04-07T14:21:08;2.20;;;2.00;;
6689;SDS011;3382;51.576;8.076;2023-04-07T14:23:34;2.70;;;2.10;;
6689;SDS011;3382;51.576;8.076;2023-04-07T14:26:01;3.97;;;1.90;;
6689;SDS011;3382;51.576;8.076;2023-04-07T14:28:27;2.30;;;2.10;;
6689;SDS011;3382;51.576;8.076;2023-04-07T14:30:53;2.37;;;2.17;;
6689;SDS011;3382;51.576;8.076;2023-04-07T14:33:19;6.00;;;2.30;;
6689;SDS011;3382;51.576;8.076;2023-04-07T14:35:46;2.80;;;2.50;;
6689;SDS011;3382;51.576;8.076;2023-04-07T14:38:11;2.17;;;1.97;;
6689;SDS011;3382;51.576;8.076;2023-04-07T14:40:37;2.20;;;2.00;;
6689;SDS011;3382;51.576;8.076;2023-04-07T14:43:04;2.47;;;2.00;;
6689;SDS011;3382;51.576;8.076;2023-04-07T14:45:31;2.40;;;2.10;;
6689;SDS011;3382;51.576;8.076;2023-04-07T14:47:56;2.30;;;2.10;;
6689;SDS011;3382;51.576;8.076;2023-04-07T14:50:22;2.27;;;2.07;;
6689;SDS011;3382;51.576;8.076;2023-04-07T14:52:48;3.40;;;2.47;;
6689;SDS011;3382;51.576;8.076;2023-04-07T14:55:14;1.97;;;1.80;;
6689;SDS011;3382;51.576;8.076;2023-04-07T14:57:40;2.40;;;2.20;;
6689;SDS011;3382;51.576;8.076;2023-04-07T15:00:06;2.20;;;2.00;;
6689;SDS011;3382;51.576;8.076;2023-04-07T15:02:33;2.57;;;2.20;;
6689;SDS011;3382;51.576;8.076;2023-04-07T15:04:59;2.00;;;1.80;;
6689;SDS011;3382;51.576;8.076;2023-04-07T15:07:25;2.47;;;2.27;;
6689;SDS011;3382;51.576;8.076;2023-04-07T15:09:51;2.10;;;1.90;;
6689;SDS011;3382;51.576;8.076;2023-04-07T15:12:16;2.13;;;1.93;;
6689;SDS011;3382;51.576;8.076;2023-04-07T15:14:43;2.30;;;2.10;;
6689;SDS011;3382;51.576;8.076;2023-04-07T15:17:10;2.77;;;2.00;;
6689;SDS011;3382;51.576;8.076;2023-04-07T15:19:35;2.70;;;2.07;;
6689;SDS011;3382;51.576;8.076;2023-04-07T15:22:01;3.00;;;2.23;;
6689;SDS011;3382;51.576;8.076;2023-04-07T15:24:27;2.97;;;2.57;;
6689;SDS011;3382;51.576;8.076;2023-04-07T15:26:52;3.53;;;2.97;;
6689;SDS011;3382;51.576;8.076;2023-04-07T15:29:18;2.50;;;2.23;;
6689;SDS011;3382;51.576;8.076;2023-04-07T15:31:43;2.17;;;1.97;;
6689;SDS011;3382;51.576;8.076;2023-04-07T15:34:09;2.27;;;2.07;;
6689;SDS011;3382;51.576;8.076;2023-04-07T15:36:35;2.23;;;2.03;;
6689;SDS011;3382;51.576;8.076;2023-04-07T15:39:04;2.30;;;2.10;;
6689;SDS011;3382;51.576;8.076;2023-04-07T15:41:30;2.40;;;2.20;;
6689;SDS011;3382;51.576;8.076;2023-04-07T15:44:00;2.53;;;2.33;;
6689;SDS011;3382;51.576;8.076;2023-04-07T15:46:26;2.40;;;2.20;;